SBJR

Details ICAO SBJR
Name Jacarepagua
Region Brazil
Timezone America/Sao_Paulo (UTC-2.0)
Plans Departing 23
Arriving 28
Stats Elevation 10 ft / 3 m (AMSL)
Location -22.987778° -43.370277°
Runways 1
Magnetic Variation 22.685° W
Sunrise 2017-10-17 08:20:12 UTC / 2017-10-17 06:20:12 Local
Sunset 2017-10-17 20:59:38 UTC / 2017-10-17 18:59:38 Local
Advertisement - Login to hide

Runways

ID Width Length Bearing (true) Bearing (mag) Surface Threshold Offset Overrun Length
02 42 ft / 13 m 2,955 ft / 901 m 359.00° 21.68° Concrete 0 ft / 0 m 0 ft / 0 m
20 42 ft / 13 m 2,955 ft / 901 m 179.00° 201.68° Concrete 0 ft / 0 m 0 ft / 0 m

Map

Weather


0- 5 10 15 20 25 30 35+ Temperature / ° C

Clouds and Precipitation
Forecast for 2017-10-17 18:00 UTC. Updated 2 hours ago

Ground ~20,000 ft ~40,000 ft Winds

METAR

SBJR 171400Z 12008KT 9999 SCT025 28/19 Q1023

TAF

Not found
Warning: Do not use this data for real-world aviation or navigation. No guarantee of current accuracy is given.